createdAt,value
2023-02-15T00:00:17.256Z,102032.84
2023-02-15T00:02:45.710Z,102027.66
2023-02-15T00:05:14.027Z,102023.34
2023-02-15T00:07:42.093Z,102014.66
2023-02-15T00:10:13.030Z,102002.41
2023-02-15T00:12:42.626Z,102009.37
2023-02-15T00:15:12.434Z,102011.91
2023-02-15T00:17:40.607Z,102006.59
2023-02-15T00:20:09.720Z,102006.63
2023-02-15T00:22:37.997Z,102001.38
2023-02-15T00:25:06.794Z,101999.59
2023-02-15T00:27:37.841Z,102004.81
2023-02-15T00:30:09.375Z,102003.06
2023-02-15T00:32:37.897Z,101993.47
2023-02-15T00:35:07.808Z,101997.88
2023-02-15T00:37:35.899Z,101989.19
2023-02-15T00:40:05.700Z,101994.50
2023-02-15T00:42:33.900Z,101989.28
2023-02-15T00:45:01.987Z,101987.56
2023-02-15T00:47:31.722Z,102003.31
2023-02-15T00:49:59.708Z,101993.66
2023-02-15T00:52:27.694Z,102001.56
2023-02-15T00:54:57.743Z,101998.06
2023-02-15T00:57:25.911Z,101992.81
2023-02-15T00:59:53.981Z,101990.19
2023-02-15T01:02:22.300Z,101990.19
2023-02-15T01:04:51.839Z,101986.69
2023-02-15T01:07:19.934Z,101988.41
2023-02-15T01:09:50.209Z,101991.94
2023-02-15T01:12:18.145Z,101985.78
2023-02-15T01:14:51.291Z,101985.78
2023-02-15T01:17:21.220Z,101984.94
2023-02-15T01:19:49.129Z,101977.06
2023-02-15T01:22:18.545Z,101984.06
2023-02-15T01:24:47.001Z,101974.44
2023-02-15T01:27:15.225Z,101975.31
2023-02-15T01:29:43.600Z,101973.53
2023-02-15T01:32:12.376Z,101973.53
2023-02-15T01:34:40.469Z,101972.56
2023-02-15T01:37:08.458Z,101974.25
2023-02-15T01:39:38.165Z,101971.59
2023-02-15T01:42:06.208Z,101968.03
2023-02-15T01:44:50.828Z,101970.59
2023-02-15T01:47:28.399Z,101967.00
2023-02-15T01:50:03.266Z,101964.34
2023-02-15T01:52:32.096Z,101959.03
2023-02-15T01:55:01.509Z,101958.94
2023-02-15T01:57:31.525Z,101951.91
2023-02-15T02:00:02.776Z,101952.72
2023-02-15T02:02:41.489Z,101946.53
2023-02-15T02:05:10.603Z,101943.00
2023-02-15T02:07:41.751Z,101936.81
2023-02-15T02:10:15.454Z,101935.09
2023-02-15T02:12:46.256Z,101951.69
2023-02-15T02:15:15.325Z,101942.00
2023-02-15T02:17:56.591Z,101939.44
2023-02-15T02:20:48.119Z,101936.75
2023-02-15T02:23:34.619Z,101936.78
2023-02-15T02:26:34.670Z,101929.81
2023-02-15T02:29:40.543Z,101937.63
2023-02-15T02:32:30.589Z,101928.87
2023-02-15T02:35:04.599Z,101923.69
2023-02-15T02:37:39.355Z,101918.53
2023-02-15T02:40:15.296Z,101920.38
2023-02-15T02:42:46.263Z,101925.69
2023-02-15T02:45:22.106Z,101917.81
2023-02-15T02:47:55.114Z,101910.03
2023-02-15T02:50:29.104Z,101916.16
2023-02-15T02:52:58.986Z,101917.97
2023-02-15T02:55:31.411Z,101909.34
2023-02-15T02:58:05.188Z,101908.47
2023-02-15T03:00:38.204Z,101891.84
2023-02-15T03:03:11.980Z,101890.91
2023-02-15T03:05:46.008Z,101887.47
2023-02-15T03:08:22.954Z,101878.75
2023-02-15T03:10:55.579Z,101875.34
2023-02-15T03:13:24.886Z,101882.41
2023-02-15T03:16:12.415Z,101881.47
2023-02-15T03:18:45.403Z,101877.03
2023-02-15T03:21:23.208Z,101881.44
2023-02-15T03:23:56.729Z,101877.09
2023-02-15T03:26:31.953Z,101879.69
2023-02-15T03:29:02.457Z,101875.25
2023-02-15T03:31:35.370Z,101874.41
2023-02-15T03:34:08.391Z,101875.31
2023-02-15T03:36:45.716Z,101872.59
2023-02-15T03:39:20.957Z,101870.94
2023-02-15T03:41:56.805Z,101869.16
2023-02-15T03:44:30.279Z,101875.38
2023-02-15T03:47:06.408Z,101868.34
2023-02-15T03:49:42.559Z,101870.16
2023-02-15T03:52:13.584Z,101870.16
2023-02-15T03:54:47.042Z,101865.84
2023-02-15T03:57:37.177Z,101870.19
2023-02-15T04:00:31.433Z,101867.66
2023-02-15T04:03:23.712Z,101870.28
2023-02-15T04:05:51.986Z,101873.81
2023-02-15T04:08:21.565Z,101865.06
2023-02-15T04:10:54.654Z,101872.06
2023-02-15T04:13:24.219Z,101870.25
2023-02-15T04:16:08.091Z,101863.28
2023-02-15T04:18:57.992Z,101866.84
2023-02-15T04:21:45.591Z,101863.31
2023-02-15T04:24:33.868Z,101858.91
2023-02-15T04:27:03.286Z,101855.56
2023-02-15T04:29:32.379Z,101853.72
2023-02-15T04:32:03.456Z,101855.44
2023-02-15T04:34:31.920Z,101849.41
2023-02-15T04:36:59.930Z,101847.59
2023-02-15T04:39:29.397Z,101845.06
2023-02-15T04:41:57.651Z,101845.06
2023-02-15T04:44:25.826Z,101842.47
2023-02-15T04:46:53.797Z,101838.00
2023-02-15T04:49:22.165Z,101841.53
2023-02-15T04:51:50.152Z,101839.81
2023-02-15T04:54:21.371Z,101833.56
2023-02-15T04:56:51.113Z,101829.19
2023-02-15T04:59:19.174Z,101827.53
2023-02-15T05:01:47.173Z,101824.03
2023-02-15T05:04:15.648Z,101822.25
2023-02-15T05:06:43.724Z,101816.16
2023-02-15T05:09:14.459Z,101828.53
2023-02-15T05:11:42.729Z,101822.41
2023-02-15T05:14:12.006Z,101812.84
2023-02-15T05:16:40.084Z,101809.31
2023-02-15T05:19:10.028Z,101816.31
2023-02-15T05:21:37.997Z,101815.47
2023-02-15T05:24:26.418Z,101811.12
2023-02-15T05:27:12.228Z,101812.00
2023-02-15T05:29:42.073Z,101811.06
2023-02-15T05:32:11.592Z,101806.72
2023-02-15T05:34:39.664Z,101810.28
2023-02-15T05:37:08.539Z,101805.03
2023-02-15T05:39:36.829Z,101812.09
2023-02-15T05:42:05.727Z,101812.91
2023-02-15T05:44:33.709Z,101812.91
2023-02-15T05:47:04.000Z,101807.59
2023-02-15T05:49:32.305Z,101804.22
2023-02-15T05:52:00.270Z,101807.63
2023-02-15T05:54:28.657Z,101812.06
2023-02-15T05:56:56.862Z,101805.81
2023-02-15T05:59:24.949Z,101811.12
2023-02-15T06:01:53.212Z,101807.56
2023-02-15T06:04:22.788Z,101806.66
2023-02-15T06:06:50.798Z,101803.28
2023-02-15T06:09:20.762Z,101811.09
2023-02-15T06:11:48.996Z,101805.75
2023-02-15T06:14:17.265Z,101801.31
2023-02-15T06:16:45.340Z,101801.41
2023-02-15T06:19:13.743Z,101801.44
2023-02-15T06:21:43.268Z,101808.50
2023-02-15T06:24:11.608Z,101814.53
2023-02-15T06:26:39.890Z,101806.66
2023-02-15T06:29:07.933Z,101800.50
2023-02-15T06:31:36.814Z,101804.91
2023-02-15T06:34:08.319Z,101807.59
2023-02-15T06:36:36.416Z,101809.47
2023-02-15T06:39:06.390Z,101807.63
2023-02-15T06:41:34.605Z,101807.63
2023-02-15T06:44:02.712Z,101804.94
2023-02-15T06:46:30.718Z,101808.44
2023-02-15T06:48:59.079Z,101809.28
2023-02-15T06:51:27.015Z,101805.81
2023-02-15T06:53:55.008Z,101802.41
2023-02-15T06:56:27.609Z,101808.41
2023-02-15T06:58:55.668Z,101798.75
2023-02-15T07:01:24.092Z,101797.88
2023-02-15T07:03:52.253Z,101788.28
2023-02-15T07:06:20.312Z,101788.22
2023-02-15T07:08:48.766Z,101790.75
2023-02-15T07:11:34.415Z,101789.91
2023-02-15T07:14:04.210Z,101786.31
2023-02-15T07:16:32.324Z,101788.97
2023-02-15T07:19:00.308Z,101788.91
2023-02-15T07:21:28.586Z,101787.06
2023-02-15T07:23:59.265Z,101788.88
2023-02-15T07:26:27.628Z,101786.13
2023-02-15T07:28:55.996Z,101777.38
2023-02-15T07:31:25.506Z,101771.28
2023-02-15T07:33:53.709Z,101771.25
2023-02-15T07:36:22.196Z,101773.81
2023-02-15T07:38:50.181Z,101764.91
2023-02-15T07:41:18.452Z,101768.31
2023-02-15T07:43:47.064Z,101765.84
2023-02-15T07:46:17.489Z,101769.22
2023-02-15T07:48:50.225Z,101763.09
2023-02-15T07:51:18.482Z,101764.75
2023-02-15T07:53:46.663Z,101767.34
2023-02-15T07:56:16.632Z,101763.00
2023-02-15T07:58:53.910Z,101755.91
2023-02-15T08:01:24.749Z,101762.84
2023-02-15T08:03:55.424Z,101757.38
2023-02-15T08:06:24.619Z,101758.09
2023-02-15T08:08:53.289Z,101755.41
2023-02-15T08:11:33.667Z,101752.75
2023-02-15T08:14:04.951Z,101755.28
2023-02-15T08:16:36.173Z,101745.78
2023-02-15T08:19:08.752Z,101756.22
2023-02-15T08:21:38.926Z,101753.38
2023-02-15T08:24:08.487Z,101749.75
2023-02-15T08:26:38.069Z,101749.66
2023-02-15T08:29:07.594Z,101744.28
2023-02-15T08:31:38.492Z,101738.91
2023-02-15T08:34:08.114Z,101733.50
2023-02-15T08:36:37.002Z,101731.75
2023-02-15T08:39:07.545Z,101729.81
2023-02-15T08:41:37.053Z,101727.91
2023-02-15T08:44:07.633Z,101740.03
2023-02-15T08:46:37.945Z,101738.16
2023-02-15T08:49:08.275Z,101743.25
2023-02-15T08:51:38.842Z,101739.59
2023-02-15T08:54:09.576Z,101734.22
2023-02-15T08:56:39.061Z,101736.81
2023-02-15T08:59:08.453Z,101730.53
2023-02-15T09:01:37.178Z,101725.97
2023-02-15T09:04:09.681Z,101724.28
2023-02-15T09:06:39.137Z,101725.81
2023-02-15T09:09:07.608Z,101728.09
2023-02-15T09:11:38.236Z,101723.31
2023-02-15T09:14:09.168Z,101717.69
2023-02-15T09:16:39.142Z,101717.38
2023-02-15T09:19:09.544Z,101723.06
2023-02-15T09:21:39.365Z,101720.88
2023-02-15T09:24:10.084Z,101726.62
2023-02-15T09:26:41.363Z,101718.25
2023-02-15T09:29:10.342Z,101721.72
2023-02-15T09:31:42.257Z,101714.56
2023-02-15T09:34:12.181Z,101710.88
2023-02-15T09:36:42.259Z,101708.59
2023-02-15T09:39:12.858Z,101711.44
2023-02-15T09:41:58.452Z,101708.06
2023-02-15T09:44:43.168Z,101700.63
2023-02-15T09:47:26.753Z,101707.06
2023-02-15T09:50:03.717Z,101711.06
2023-02-15T09:52:42.527Z,101705.34
2023-02-15T09:55:24.754Z,101704.00
2023-02-15T09:58:00.412Z,101705.09
2023-02-15T10:00:37.389Z,101695.06
2023-02-15T10:03:21.925Z,101693.94
2023-02-15T10:06:06.396Z,101692.62
2023-02-15T10:08:50.632Z,101704.41
2023-02-15T10:11:40.885Z,101703.81
2023-02-15T10:14:42.794Z,101699.72
2023-02-15T10:17:23.193Z,101700.34
2023-02-15T10:20:06.568Z,101690.44
2023-02-15T10:22:48.650Z,101693.66
2023-02-15T10:25:33.415Z,101686.69
2023-02-15T10:28:07.494Z,101686.81
2023-02-15T10:30:48.090Z,101691.59
2023-02-15T10:33:33.035Z,101684.06
2023-02-15T10:36:12.462Z,101683.66
2023-02-15T10:38:45.776Z,101674.78
2023-02-15T10:41:26.317Z,101671.19
2023-02-15T10:44:07.937Z,101670.94
2023-02-15T10:46:49.388Z,101659.63
2023-02-15T10:49:28.557Z,101658.16
2023-02-15T10:52:11.143Z,101653.50
2023-02-15T10:54:48.392Z,101650.56
2023-02-15T10:57:26.815Z,101645.50
2023-02-15T11:00:10.412Z,101642.50
2023-02-15T11:03:01.375Z,101640.69
2023-02-15T11:05:40.525Z,101649.72
2023-02-15T11:08:12.347Z,101639.47
2023-02-15T11:10:46.511Z,101632.69
2023-02-15T11:13:18.168Z,101633.87
2023-02-15T11:15:49.850Z,101630.28
2023-02-15T11:18:28.330Z,101627.84
2023-02-15T11:21:01.808Z,101628.00
2023-02-15T11:23:30.668Z,101626.31
2023-02-15T11:26:02.549Z,101621.53
2023-02-15T11:28:36.031Z,101610.72
2023-02-15T11:31:16.897Z,101608.50
2023-02-15T11:33:48.793Z,101608.19
2023-02-15T11:36:21.395Z,101613.31
2023-02-15T11:38:54.557Z,101605.97
2023-02-15T11:41:30.408Z,101607.91
2023-02-15T11:44:05.528Z,101601.12
2023-02-15T11:46:34.380Z,101607.50
2023-02-15T11:49:03.930Z,101596.53
2023-02-15T11:51:32.012Z,101602.81
2023-02-15T11:54:00.008Z,101590.66
2023-02-15T11:56:29.755Z,101599.06
2023-02-15T11:59:00.443Z,101595.13
2023-02-15T12:01:33.923Z,101593.81
2023-02-15T12:04:08.838Z,101592.38
2023-02-15T12:06:43.246Z,101585.25
2023-02-15T12:09:23.703Z,101573.72
2023-02-15T12:11:53.315Z,101574.78
2023-02-15T12:14:21.687Z,101572.25
2023-02-15T12:16:52.406Z,101572.97
2023-02-15T12:19:32.553Z,101574.19
2023-02-15T12:22:04.359Z,101569.44
2023-02-15T12:24:36.582Z,101564.72
2023-02-15T12:27:08.638Z,101558.03
2023-02-15T12:29:41.734Z,101551.41
2023-02-15T12:32:13.652Z,101550.28
2023-02-15T12:34:44.720Z,101541.63
2023-02-15T12:37:19.475Z,101542.69
2023-02-15T12:39:56.247Z,101536.94
2023-02-15T12:42:27.403Z,101537.56
2023-02-15T12:45:00.999Z,101534.72
2023-02-15T12:47:31.645Z,101527.78
2023-02-15T12:50:17.882Z,101528.31
2023-02-15T12:52:49.631Z,101530.00
2023-02-15T12:55:24.642Z,101528.94
2023-02-15T12:58:10.636Z,101529.00
2023-02-15T13:00:39.177Z,101529.00
2023-02-15T13:03:19.186Z,101525.97
2023-02-15T13:05:49.942Z,101520.94
2023-02-15T13:08:20.737Z,101522.97
2023-02-15T13:10:56.477Z,101510.97
2023-02-15T13:13:27.996Z,101506.66
2023-02-15T13:16:00.282Z,101511.41
2023-02-15T13:18:34.734Z,101504.09
2023-02-15T13:21:08.631Z,101511.63
2023-02-15T13:23:37.551Z,101507.31
2023-02-15T13:26:12.978Z,101502.19
2023-02-15T13:28:46.379Z,101506.72
2023-02-15T13:31:17.137Z,101500.88
2023-02-15T13:33:49.131Z,101494.53
2023-02-15T13:36:25.867Z,101492.41
2023-02-15T13:39:06.496Z,101488.44
2023-02-15T13:41:39.637Z,101480.31
2023-02-15T13:44:17.548Z,101474.94
2023-02-15T13:46:59.192Z,101484.16
2023-02-15T13:49:41.703Z,101480.72
2023-02-15T13:52:20.387Z,101480.19
2023-02-15T13:55:08.787Z,101485.44
2023-02-15T13:58:03.708Z,101483.19
2023-02-15T14:00:42.590Z,101479.88
2023-02-15T14:03:37.514Z,101477.44
2023-02-15T14:06:19.279Z,101477.63
2023-02-15T14:08:59.825Z,101481.84
2023-02-15T14:11:36.403Z,101472.06
2023-02-15T14:14:46.939Z,101476.88
2023-02-15T14:17:25.410Z,101468.09
2023-02-15T14:19:59.309Z,101484.06
2023-02-15T14:22:34.730Z,101476.78
2023-02-15T14:25:18.157Z,101470.34
2023-02-15T14:27:56.795Z,101466.78
2023-02-15T14:30:29.399Z,101467.00
2023-02-15T14:33:07.000Z,101462.28
2023-02-15T14:35:36.114Z,101461.38
2023-02-15T14:38:09.577Z,101454.06
2023-02-15T14:41:04.346Z,101454.56
2023-02-15T14:43:46.515Z,101454.78
2023-02-15T14:46:23.770Z,101445.22
2023-02-15T14:48:55.760Z,101443.50
2023-02-15T14:51:59.961Z,101438.88
2023-02-15T14:55:02.967Z,101434.44
2023-02-15T14:57:36.760Z,101429.19
2023-02-15T15:00:32.479Z,101434.44
2023-02-15T15:03:02.205Z,101435.59
2023-02-15T15:05:36.907Z,101437.91
2023-02-15T15:08:07.325Z,101430.75
2023-02-15T15:10:41.645Z,101435.97
2023-02-15T15:13:53.603Z,101439.06
2023-02-15T15:16:48.085Z,101430.19
2023-02-15T15:20:05.121Z,101424.69
2023-02-15T15:22:36.034Z,101427.97
2023-02-15T15:25:06.246Z,101432.72
2023-02-15T15:27:47.049Z,101439.63
2023-02-15T15:30:50.933Z,101427.88
2023-02-15T15:34:04.585Z,101427.97
2023-02-15T15:36:55.156Z,101428.34
2023-02-15T15:39:56.408Z,101424.44
2023-02-15T15:42:35.013Z,101417.50
2023-02-15T15:45:21.299Z,101403.47
2023-02-15T15:48:07.281Z,101395.69
2023-02-15T15:50:36.041Z,101396.03
2023-02-15T15:53:05.535Z,101404.06
2023-02-15T15:55:38.337Z,101401.09
2023-02-15T15:58:09.267Z,101410.44
2023-02-15T16:00:41.767Z,101407.56
2023-02-15T16:03:16.528Z,101401.88
2023-02-15T16:05:44.576Z,101408.53
2023-02-15T16:08:12.959Z,101408.62
2023-02-15T16:10:42.811Z,101417.19
2023-02-15T16:13:16.381Z,101426.41
2023-02-15T16:15:50.519Z,101421.44
2023-02-15T16:18:19.381Z,101418.34
2023-02-15T16:20:53.933Z,101410.88
2023-02-15T16:23:46.830Z,101411.78
2023-02-15T16:26:28.004Z,101407.84
2023-02-15T16:28:56.289Z,101407.88
2023-02-15T16:31:25.092Z,101411.81
2023-02-15T16:33:55.923Z,101412.13
2023-02-15T16:36:25.961Z,101415.16
2023-02-15T16:39:12.544Z,101409.50
2023-02-15T16:41:46.874Z,101409.69
2023-02-15T16:44:19.284Z,101414.84
2023-02-15T16:46:50.436Z,101404.69
2023-02-15T16:49:20.429Z,101415.50
2023-02-15T16:51:58.644Z,101413.34
2023-02-15T16:54:28.292Z,101409.28
2023-02-15T16:56:58.083Z,101407.09
2023-02-15T16:59:36.521Z,101413.63
2023-02-15T17:02:07.694Z,101413.00
2023-02-15T17:04:38.998Z,101411.91
2023-02-15T17:07:15.619Z,101413.25
2023-02-15T17:09:51.804Z,101416.63
2023-02-15T17:12:48.042Z,101419.97
2023-02-15T17:15:28.362Z,101418.62
2023-02-15T17:18:00.568Z,101424.31
2023-02-15T17:20:32.103Z,101418.44
2023-02-15T17:23:02.085Z,101410.75
2023-02-15T17:25:37.966Z,101412.91
2023-02-15T17:28:17.960Z,101406.81
2023-02-15T17:30:47.321Z,101406.03
2023-02-15T17:33:29.811Z,101402.81
2023-02-15T17:36:06.401Z,101402.81
2023-02-15T17:38:35.196Z,101401.00
2023-02-15T17:41:03.587Z,101402.87
2023-02-15T17:43:33.389Z,101402.97
2023-02-15T17:46:02.137Z,101404.94
2023-02-15T17:48:34.180Z,101406.00
2023-02-15T17:51:05.406Z,101407.88
2023-02-15T17:53:34.044Z,101407.16
2023-02-15T17:56:10.655Z,101413.47
2023-02-15T17:58:40.910Z,101401.28
2023-02-15T18:01:38.212Z,101415.66
2023-02-15T18:04:27.075Z,101405.28
2023-02-15T18:07:13.173Z,101406.37
2023-02-15T18:09:59.510Z,101415.47
2023-02-15T18:12:29.507Z,101409.59
2023-02-15T18:15:00.714Z,101414.19
2023-02-15T18:17:31.370Z,101402.87
2023-02-15T18:20:01.474Z,101399.47
2023-02-15T18:22:30.918Z,101404.22
2023-02-15T18:25:00.102Z,101397.31
2023-02-15T18:27:28.502Z,101398.47
2023-02-15T18:29:56.728Z,101395.81
2023-02-15T18:32:32.117Z,101395.16
2023-02-15T18:35:00.642Z,101398.97
2023-02-15T18:37:33.101Z,101404.53
2023-02-15T18:40:04.143Z,101403.88
2023-02-15T18:42:35.165Z,101404.84
2023-02-15T18:45:14.997Z,101406.75
2023-02-15T18:47:44.920Z,101411.34
2023-02-15T18:50:14.482Z,101412.87
2023-02-15T18:52:46.167Z,101405.84
2023-02-15T18:55:18.637Z,101401.53
2023-02-15T18:57:48.052Z,101403.44
2023-02-15T19:00:19.420Z,101409.69
2023-02-15T19:02:49.251Z,101407.97
2023-02-15T19:05:18.374Z,101400.16
2023-02-15T19:07:48.545Z,101395.91
2023-02-15T19:10:20.148Z,101396.09
2023-02-15T19:12:49.382Z,101394.53
2023-02-15T19:15:19.437Z,101399.84
2023-02-15T19:17:48.908Z,101391.03
2023-02-15T19:20:20.395Z,101392.97
2023-02-15T19:22:50.088Z,101393.91
2023-02-15T19:25:22.586Z,101392.19
2023-02-15T19:27:51.161Z,101392.25
2023-02-15T19:30:22.797Z,101388.75
2023-02-15T19:32:53.608Z,101380.88
2023-02-15T19:35:23.854Z,101382.75
2023-02-15T19:37:54.160Z,101379.47
2023-02-15T19:40:24.898Z,101376.88
2023-02-15T19:42:53.003Z,101373.63
2023-02-15T19:45:23.964Z,101372.81
2023-02-15T19:47:55.212Z,101373.75
2023-02-15T19:50:25.613Z,101376.41
2023-02-15T19:52:54.177Z,101372.94
2023-02-15T19:55:25.053Z,101374.94
2023-02-15T19:57:55.809Z,101376.78
2023-02-15T20:00:27.326Z,101385.75
2023-02-15T20:02:59.135Z,101385.03
2023-02-15T20:05:28.933Z,101384.41
2023-02-15T20:07:58.160Z,101387.25
2023-02-15T20:10:29.248Z,101383.97
2023-02-15T20:12:58.237Z,101383.31
2023-02-15T20:15:28.455Z,101375.69
2023-02-15T20:17:59.423Z,101372.31
2023-02-15T20:20:35.369Z,101369.94
2023-02-15T20:23:03.573Z,101373.56
2023-02-15T20:25:34.106Z,101375.41
2023-02-15T20:28:03.124Z,101372.81
2023-02-15T20:30:33.433Z,101372.09
2023-02-15T20:33:02.857Z,101366.88
2023-02-15T20:35:31.060Z,101361.72
2023-02-15T20:38:00.493Z,101360.75
2023-02-15T20:40:30.784Z,101362.53
2023-02-15T20:42:59.533Z,101360.81
2023-02-15T20:45:30.510Z,101351.16
2023-02-15T20:47:59.551Z,101349.50
2023-02-15T20:50:31.841Z,101348.75
2023-02-15T20:53:02.691Z,101352.37
2023-02-15T20:55:33.009Z,101350.66
2023-02-15T20:58:01.108Z,101348.16
2023-02-15T21:00:32.249Z,101349.09
2023-02-15T21:03:02.392Z,101348.38
2023-02-15T21:05:33.690Z,101358.16
2023-02-15T21:08:02.596Z,101353.00
2023-02-15T21:10:32.613Z,101355.78
2023-02-15T21:13:03.368Z,101360.16
2023-02-15T21:15:34.468Z,101353.94
2023-02-15T21:18:05.112Z,101358.44
2023-02-15T21:20:37.412Z,101359.06
2023-02-15T21:23:06.919Z,101354.34
2023-02-15T21:25:36.964Z,101357.19
2023-02-15T21:28:05.964Z,101361.66
2023-02-15T21:30:34.121Z,101361.53
2023-02-15T21:33:02.405Z,101370.34
2023-02-15T21:35:30.518Z,101358.25
2023-02-15T21:38:00.062Z,101360.97
2023-02-15T21:40:31.798Z,101359.22
2023-02-15T21:43:17.937Z,101354.88
2023-02-15T21:46:03.750Z,101358.59
2023-02-15T21:48:31.750Z,101357.91
2023-02-15T21:51:17.621Z,101360.75
2023-02-15T21:53:47.663Z,101360.75
2023-02-15T21:56:18.763Z,101365.25
2023-02-15T21:58:50.911Z,101359.09
2023-02-15T22:01:23.671Z,101360.88
2023-02-15T22:03:53.321Z,101361.09
2023-02-15T22:06:21.700Z,101352.22
2023-02-15T22:08:51.223Z,101354.00
2023-02-15T22:11:22.580Z,101354.31
2023-02-15T22:13:51.664Z,101356.09
2023-02-15T22:16:22.087Z,101350.75
2023-02-15T22:18:50.475Z,101351.59
2023-02-15T22:21:19.198Z,101341.38
2023-02-15T22:23:47.976Z,101349.13
2023-02-15T22:26:23.413Z,101349.16
2023-02-15T22:28:52.226Z,101340.38
2023-02-15T22:31:22.983Z,101338.50
2023-02-15T22:33:51.537Z,101347.50
2023-02-15T22:36:25.688Z,101339.59
2023-02-15T22:38:55.177Z,101351.06
2023-02-15T22:41:28.385Z,101344.75
2023-02-15T22:43:57.738Z,101342.44
2023-02-15T22:46:27.108Z,101347.78
2023-02-15T22:48:55.119Z,101349.56
2023-02-15T22:51:25.883Z,101337.47
2023-02-15T22:53:53.899Z,101337.38
2023-02-15T22:56:27.253Z,101340.28
2023-02-15T22:59:02.237Z,101335.84
2023-02-15T23:01:32.825Z,101337.59
2023-02-15T23:04:03.967Z,101334.34
2023-02-15T23:06:32.509Z,101329.97
2023-02-15T23:09:01.377Z,101332.41
2023-02-15T23:11:30.814Z,101334.66
2023-02-15T23:13:58.811Z,101337.78
2023-02-15T23:16:27.156Z,101333.22
2023-02-15T23:18:55.551Z,101335.69
2023-02-15T23:21:25.702Z,101328.37
2023-02-15T23:23:57.547Z,101333.34
2023-02-15T23:26:28.928Z,101333.72
2023-02-15T23:29:00.529Z,101341.44
2023-02-15T23:31:32.105Z,101340.78
2023-02-15T23:34:02.485Z,101341.87
2023-02-15T23:36:33.074Z,101336.78
2023-02-15T23:39:26.494Z,101335.19
2023-02-15T23:41:54.496Z,101335.22
2023-02-15T23:44:24.197Z,101344.66
2023-02-15T23:46:52.422Z,101342.00
2023-02-15T23:49:21.069Z,101350.03
2023-02-15T23:51:51.880Z,101355.31
2023-02-15T23:54:22.381Z,101351.06
2023-02-15T23:56:53.352Z,101351.97
2023-02-15T23:59:24.882Z,101358.94
